Time;durP1;ratioP1;P1;durP2;ratioP2;P2;SDS_P1;SDS_P2;PMS_P1;PMS_P2;Temp;Humidity;BMP_temperature;BMP_pressure;BME280_temperature;BME280_humidity;BME280_pressure;Samples;Min_cycle;Max_cycle;Signal;HPM_P1;HPM_P2
2023/07/15 00:00:27;;;;;;;;;;;;;;;;;;2366681;54;1375;-23
2023/07/15 00:02:57;;;;;;;;;;;;;;;;;;2370965;62;2002;-23
2023/07/15 00:05:30;;;;;;;;;;;;;;;;;;2367363;62;1537;-23
2023/07/15 00:08:01;;;;;;;;;;;;;;;;;;2370913;62;1114;-23
2023/07/15 00:10:33;;;;;;;;;;;;;;;;;;2371420;62;1175;-23
2023/07/15 00:13:06;;;;;;;;;;;;;;;;;;2371900;62;1532;-23
2023/07/15 00:15:36;;;;;;;;;;;;;;;;;;2371424;54;2339;-23
2023/07/15 00:18:09;;;;;;;;;;;;;;;;;;2371941;54;1417;-23
2023/07/15 00:20:40;;;;;;;;;;;;;;;;;;2371892;54;1265;-23
2023/07/15 00:23:17;;;;;;;;;;;;;;;;;;2367779;62;1943;-23
2023/07/15 00:25:48;;;;;;;;;;;;;;;;;;2371767;54;1202;-23
2023/07/15 00:28:19;;;;;;;;;;;;;;;;;;2371927;62;1090;-23
2023/07/15 00:30:50;;;;;;;;;;;;;;;;;;2372288;54;1170;-23
2023/07/15 00:33:21;;;;;;;;;;;;;;;;;;2371960;54;1180;-23
2023/07/15 00:35:51;;;;;;;;;;;;;;;;;;2368114;54;1328;-23
2023/07/15 00:38:21;;;;;;;;;;;;;;;;;;2371565;62;1325;-23
2023/07/15 00:40:51;;;;;;;;;;;;;;;;;;2372362;62;1165;-23
2023/07/15 00:43:40;;;;;;;;;;;;;;;;;;2367422;62;1940;-23
2023/07/15 00:46:26;;;;;;;;;;;;;;;;;;2372193;62;1305;-23
2023/07/15 00:49:02;;;;;;;;;;;;;;;;;;2371716;62;1008;-23
2023/07/15 00:51:34;;;;;;;;;;;;;;;;;;2364005;54;1282;-23
2023/07/15 00:54:05;;;;;;;;;;;;;;;;;;2371702;54;2160;-23
2023/07/15 00:56:36;;;;;;;;;;;;;;;;;;2372304;54;1090;-23
2023/07/15 00:59:08;;;;;;;;;;;;;;;;;;2371356;62;1888;-23
2023/07/15 01:01:38;;;;;;;;;;;;;;;;;;2372345;54;1205;-23
2023/07/15 01:04:09;;;;;;;;;;;;;;;;;;2374545;62;1983;-23
2023/07/15 01:06:41;;;;;;;;;;;;;;;;;;2373245;62;1022;-23
2023/07/15 01:09:12;;;;;;;;;;;;;;;;;;2372037;62;1029;-23
2023/07/15 01:11:42;;;;;;;;;;;;;;;;;;2371630;62;1516;-23
2023/07/15 01:14:13;;;;;;;;;;;;;;;;;;2371273;62;1497;-23
2023/07/15 01:16:46;;;;;;;;;;;;;;;;;;2371244;62;1206;-23
2023/07/15 01:19:20;;;;;;;;;;;;;;;;;;2370655;62;1213;-23
2023/07/15 01:21:50;;;;;;;;;;;;;;;;;;2371539;62;1165;-23
2023/07/15 01:24:22;;;;;;;;;;;;;;;;;;2371173;62;1988;-23
2023/07/15 01:26:57;;;;;;;;;;;;;;;;;;2371783;54;1260;-23
2023/07/15 01:29:27;;;;;;;;;;;;;;;;;;2371447;62;1072;-23
2023/07/15 01:31:58;;;;;;;;;;;;;;;;;;2366729;54;1951;-23
2023/07/15 01:34:30;;;;;;;;;;;;;;;;;;2370674;54;1590;-23
2023/07/15 01:37:00;;;;;;;;;;;;;;;;;;2371081;54;1331;-23
2023/07/15 01:39:31;;;;;;;;;;;;;;;;;;2371457;54;1250;-23
2023/07/15 01:42:01;;;;;;;;;;;;;;;;;;2371472;62;1226;-23
2023/07/15 01:44:32;;;;;;;;;;;;;;;;;;2370788;54;1942;-23
2023/07/15 01:47:02;;;;;;;;;;;;;;;;;;2371336;62;1035;-23
2023/07/15 01:49:32;;;;;;;;;;;;;;;;;;2371039;54;1251;-23
2023/07/15 01:52:02;;;;;;;;;;;;;;;;;;2371632;54;1910;-23
2023/07/15 01:54:33;;;;;;;;;;;;;;;;;;2371208;54;1066;-23
2023/07/15 01:57:03;;;;;;;;;;;;;;;;;;2371456;54;1271;-23
2023/07/15 01:59:33;;;;;;;;;;;;;;;;;;2370708;62;1443;-23
2023/07/15 02:02:04;;;;;;;;;;;;;;;;;;2370712;54;1256;-23
2023/07/15 02:04:36;;;;;;;;;;;;;;;;;;2371472;62;1321;-23
2023/07/15 02:07:06;;;;;;;;;;;;;;;;;;2367211;54;1646;-23
2023/07/15 02:09:36;;;;;;;;;;;;;;;;;;2371278;54;1689;-23
2023/07/15 02:12:07;;;;;;;;;;;;;;;;;;2371361;62;1559;-23
2023/07/15 02:14:37;;;;;;;;;;;;;;;;;;2369891;62;1471;-23
2023/07/15 02:17:07;;;;;;;;;;;;;;;;;;2366738;54;973;-23
2023/07/15 02:19:38;;;;;;;;;;;;;;;;;;2371165;62;1268;-23
2023/07/15 02:22:08;;;;;;;;;;;;;;;;;;2371264;62;1970;-23
2023/07/15 02:24:38;;;;;;;;;;;;;;;;;;2371715;62;1095;-23
2023/07/15 02:27:08;;;;;;;;;;;;;;;;;;2371406;54;1279;-23
2023/07/15 02:29:39;;;;;;;;;;;;;;;;;;2371790;62;1179;-23
2023/07/15 02:32:09;;;;;;;;;;;;;;;;;;2370958;54;1387;-23
2023/07/15 02:34:39;;;;;;;;;;;;;;;;;;2371674;62;1141;-23
2023/07/15 02:37:12;;;;;;;;;;;;;;;;;;2371095;62;1326;-23
2023/07/15 02:39:42;;;;;;;;;;;;;;;;;;2371602;62;1752;-23
2023/07/15 02:42:12;;;;;;;;;;;;;;;;;;2370829;62;1928;-23
2023/07/15 02:44:43;;;;;;;;;;;;;;;;;;2371626;62;1068;-23
2023/07/15 02:47:13;;;;;;;;;;;;;;;;;;2371408;62;975;-23
2023/07/15 02:49:43;;;;;;;;;;;;;;;;;;2371731;54;1289;-23
2023/07/15 02:52:14;;;;;;;;;;;;;;;;;;2371778;54;1945;-23
2023/07/15 02:54:44;;;;;;;;;;;;;;;;;;2366756;54;1495;-23
2023/07/15 02:57:14;;;;;;;;;;;;;;;;;;2371292;54;1253;-23
2023/07/15 02:59:44;;;;;;;;;;;;;;;;;;2371263;54;1584;-23
2023/07/15 03:02:15;;;;;;;;;;;;;;;;;;2370221;62;1984;-23
2023/07/15 03:04:45;;;;;;;;;;;;;;;;;;2368033;62;1437;-23
2023/07/15 03:07:16;;;;;;;;;;;;;;;;;;2367442;54;1290;-22
2023/07/15 03:09:46;;;;;;;;;;;;;;;;;;2371598;62;1273;-22
2023/07/15 03:12:17;;;;;;;;;;;;;;;;;;2370912;62;1383;-23
2023/07/15 03:14:47;;;;;;;;;;;;;;;;;;2371867;62;991;-23
2023/07/15 03:17:17;;;;;;;;;;;;;;;;;;2367311;62;1220;-23
2023/07/15 03:19:48;;;;;;;;;;;;;;;;;;2371531;62;1297;-23
2023/07/15 03:22:18;;;;;;;;;;;;;;;;;;2371928;62;1914;-23
2023/07/15 03:24:49;;;;;;;;;;;;;;;;;;2371704;62;1144;-23
2023/07/15 03:27:19;;;;;;;;;;;;;;;;;;2372058;54;1660;-23
2023/07/15 03:29:50;;;;;;;;;;;;;;;;;;2371600;54;1356;-23
2023/07/15 03:32:22;;;;;;;;;;;;;;;;;;2371719;54;1361;-23
2023/07/15 03:34:53;;;;;;;;;;;;;;;;;;2371344;62;1143;-22
2023/07/15 03:37:25;;;;;;;;;;;;;;;;;;2371836;54;1980;-22
2023/07/15 03:39:55;;;;;;;;;;;;;;;;;;2371280;54;1333;-22
2023/07/15 03:42:26;;;;;;;;;;;;;;;;;;2371237;54;1972;-22
2023/07/15 03:44:57;;;;;;;;;;;;;;;;;;2371367;54;1305;-22
2023/07/15 03:47:27;;;;;;;;;;;;;;;;;;2367284;62;1899;-22
2023/07/15 03:49:58;;;;;;;;;;;;;;;;;;2366722;54;1308;-22
2023/07/15 03:52:28;;;;;;;;;;;;;;;;;;2371069;54;1898;-22
2023/07/15 03:54:59;;;;;;;;;;;;;;;;;;2371534;54;1438;-22
2023/07/15 03:57:29;;;;;;;;;;;;;;;;;;2371624;54;1166;-22
2023/07/15 03:59:59;;;;;;;;;;;;;;;;;;2371476;54;1316;-22
2023/07/15 04:02:30;;;;;;;;;;;;;;;;;;2370060;54;1925;-22
2023/07/15 04:05:00;;;;;;;;;;;;;;;;;;2367023;62;1489;-22
2023/07/15 04:07:30;;;;;;;;;;;;;;;;;;2367841;62;1465;-22
2023/07/15 04:10:01;;;;;;;;;;;;;;;;;;2371975;54;1258;-22
2023/07/15 04:12:31;;;;;;;;;;;;;;;;;;2371835;54;1324;-22
2023/07/15 04:15:05;;;;;;;;;;;;;;;;;;2371684;62;1104;-22
2023/07/15 04:17:35;;;;;;;;;;;;;;;;;;2368973;62;1428;-22
2023/07/15 04:20:14;;;;;;;;;;;;;;;;;;2371094;62;1171;-22
2023/07/15 04:22:44;;;;;;;;;;;;;;;;;;2371787;62;1932;-22
2023/07/15 04:25:14;;;;;;;;;;;;;;;;;;2371444;62;1135;-22
2023/07/15 04:27:44;;;;;;;;;;;;;;;;;;2371672;54;1345;-22
2023/07/15 04:30:15;;;;;;;;;;;;;;;;;;2371592;54;1282;-23
2023/07/15 04:32:47;;;;;;;;;;;;;;;;;;2367542;62;1268;-23
2023/07/15 04:35:17;;;;;;;;;;;;;;;;;;2371199;62;867;-23
2023/07/15 04:37:47;;;;;;;;;;;;;;;;;;2372299;62;953;-22
2023/07/15 04:40:18;;;;;;;;;;;;;;;;;;2367436;62;1283;-22
2023/07/15 04:42:48;;;;;;;;;;;;;;;;;;2371145;62;1916;-22
2023/07/15 04:45:18;;;;;;;;;;;;;;;;;;2370984;62;1331;-22
2023/07/15 04:47:48;;;;;;;;;;;;;;;;;;2366807;62;1470;-22
2023/07/15 04:50:19;;;;;;;;;;;;;;;;;;2371357;55;1459;-22
2023/07/15 04:52:49;;;;;;;;;;;;;;;;;;2371705;54;1960;-22
2023/07/15 04:55:20;;;;;;;;;;;;;;;;;;2371173;54;1075;-22
2023/07/15 04:57:50;;;;;;;;;;;;;;;;;;2371812;62;1095;-22
2023/07/15 05:00:20;;;;;;;;;;;;;;;;;;2367324;54;1294;-22
2023/07/15 05:02:51;;;;;;;;;;;;;;;;;;2370471;62;1932;-22
2023/07/15 05:05:21;;;;;;;;;;;;;;;;;;2370918;62;1452;-22
2023/07/15 05:07:52;;;;;;;;;;;;;;;;;;2371364;54;1554;-22
2023/07/15 05:10:22;;;;;;;;;;;;;;;;;;2371115;54;1325;-22
2023/07/15 05:12:53;;;;;;;;;;;;;;;;;;2367985;54;1500;-23
2023/07/15 05:15:23;;;;;;;;;;;;;;;;;;2371107;54;1451;-22
2023/07/15 05:17:53;;;;;;;;;;;;;;;;;;2371645;62;1318;-23
2023/07/15 05:20:24;;;;;;;;;;;;;;;;;;2371125;54;1833;-22
2023/07/15 05:22:54;;;;;;;;;;;;;;;;;;2371670;54;1932;-22
2023/07/15 05:25:25;;;;;;;;;;;;;;;;;;2369970;54;1843;-23
2023/07/15 05:27:56;;;;;;;;;;;;;;;;;;2371892;54;1421;-23
2023/07/15 05:30:26;;;;;;;;;;;;;;;;;;2371405;54;2250;-23
2023/07/15 05:32:58;;;;;;;;;;;;;;;;;;2367299;54;1395;-23
2023/07/15 05:35:28;;;;;;;;;;;;;;;;;;2372035;62;969;-23
2023/07/15 05:37:58;;;;;;;;;;;;;;;;;;2366979;54;1214;-23
2023/07/15 05:40:28;;;;;;;;;;;;;;;;;;2371372;62;1256;-23
2023/07/15 05:42:59;;;;;;;;;;;;;;;;;;2371531;62;2460;-23
2023/07/15 05:45:30;;;;;;;;;;;;;;;;;;2372430;54;1338;-23
2023/07/15 05:48:00;;;;;;;;;;;;;;;;;;2370925;62;874;-23
2023/07/15 05:50:34;;;;;;;;;;;;;;;;;;2372071;54;1231;-22
2023/07/15 05:53:04;;;;;;;;;;;;;;;;;;2371092;54;1844;-23
2023/07/15 05:55:35;;;;;;;;;;;;;;;;;;2372071;54;1173;-23
2023/07/15 05:58:09;;;;;;;;;;;;;;;;;;2370972;62;1142;-22
2023/07/15 06:00:40;;;;;;;;;;;;;;;;;;2371352;54;1573;-23
2023/07/15 06:03:10;;;;;;;;;;;;;;;;;;2363412;54;1928;-22
2023/07/15 06:05:40;;;;;;;;;;;;;;;;;;2366593;62;1656;-23
2023/07/15 06:08:11;;;;;;;;;;;;;;;;;;2371604;62;1146;-23
2023/07/15 06:10:42;;;;;;;;;;;;;;;;;;2370031;62;1510;-22
2023/07/15 06:13:12;;;;;;;;;;;;;;;;;;2371489;62;1590;-23
2023/07/15 06:15:46;;;;;;;;;;;;;;;;;;2371334;62;1104;-23
2023/07/15 06:18:17;;;;;;;;;;;;;;;;;;2371528;62;1114;-23
2023/07/15 06:20:47;;;;;;;;;;;;;;;;;;2370955;62;1249;-23
2023/07/15 06:23:18;;;;;;;;;;;;;;;;;;2367935;62;1907;-23
2023/07/15 06:25:48;;;;;;;;;;;;;;;;;;2371510;54;1274;-23
2023/07/15 06:28:18;;;;;;;;;;;;;;;;;;2367583;62;1744;-22
2023/07/15 06:30:50;;;;;;;;;;;;;;;;;;2371639;54;1378;-22
2023/07/15 06:33:20;;;;;;;;;;;;;;;;;;2371433;62;1101;-22
2023/07/15 06:35:50;;;;;;;;;;;;;;;;;;2367136;62;1115;-22
2023/07/15 06:38:21;;;;;;;;;;;;;;;;;;2366944;54;1389;-23
2023/07/15 06:40:51;;;;;;;;;;;;;;;;;;2370962;62;1199;-22
2023/07/15 06:43:22;;;;;;;;;;;;;;;;;;2371562;62;1921;-22
2023/07/15 06:45:52;;;;;;;;;;;;;;;;;;2371020;62;921;-22
2023/07/15 06:48:22;;;;;;;;;;;;;;;;;;2371811;62;1334;-23
2023/07/15 06:50:53;;;;;;;;;;;;;;;;;;2371177;54;1277;-23
2023/07/15 06:53:23;;;;;;;;;;;;;;;;;;2366433;54;2057;-23
2023/07/15 06:55:53;;;;;;;;;;;;;;;;;;2370987;62;1099;-23
2023/07/15 06:58:24;;;;;;;;;;;;;;;;;;2366967;62;1180;-20
2023/07/15 07:00:54;;;;;;;;;;;;;;;;;;2371161;54;1217;-22
2023/07/15 07:03:24;;;;;;;;;;;;;;;;;;2371541;62;1982;-23
2023/07/15 07:05:54;;;;;;;;;;;;;;;;;;2369269;54;1741;-23
2023/07/15 07:08:24;;;;;;;;;;;;;;;;;;2371398;62;1115;-23
2023/07/15 07:10:55;;;;;;;;;;;;;;;;;;2371678;62;1242;-23
2023/07/15 07:13:25;;;;;;;;;;;;;;;;;;2371339;62;1572;-20
2023/07/15 07:15:57;;;;;;;;;;;;;;;;;;2371316;62;1055;-20
2023/07/15 07:18:27;;;;;;;;;;;;;;;;;;2371101;62;1112;-20
2023/07/15 07:20:58;;;;;;;;;;;;;;;;;;2371042;62;1245;-21
2023/07/15 07:23:31;;;;;;;;;;;;;;;;;;2371500;62;1916;-20
2023/07/15 07:26:02;;;;;;;;;;;;;;;;;;2370656;54;1282;-20
2023/07/15 07:28:42;;;;;;;;;;;;;;;;;;2366231;54;1703;-21
2023/07/15 07:31:13;;;;;;;;;;;;;;;;;;2370575;54;1977;-21
2023/07/15 07:33:44;;;;;;;;;;;;;;;;;;2367475;62;1235;-21
2023/07/15 07:36:14;;;;;;;;;;;;;;;;;;2371281;62;1078;-21
2023/07/15 07:38:45;;;;;;;;;;;;;;;;;;2367104;62;1535;-21
2023/07/15 07:41:16;;;;;;;;;;;;;;;;;;2370929;62;1266;-21
2023/07/15 07:43:46;;;;;;;;;;;;;;;;;;2370970;62;1939;-21
2023/07/15 07:46:16;;;;;;;;;;;;;;;;;;2371161;62;1090;-21
2023/07/15 07:48:46;;;;;;;;;;;;;;;;;;2367316;62;1025;-21
2023/07/15 07:51:17;;;;;;;;;;;;;;;;;;2370955;54;1297;-21
2023/07/15 07:53:47;;;;;;;;;;;;;;;;;;2371803;54;2058;-21
2023/07/15 07:56:17;;;;;;;;;;;;;;;;;;2371452;54;1073;-21
2023/07/15 07:58:55;;;;;;;;;;;;;;;;;;2371436;62;1228;-21
2023/07/15 08:01:26;;;;;;;;;;;;;;;;;;2371429;54;1275;-21
2023/07/15 08:03:56;;;;;;;;;;;;;;;;;;2366144;62;1924;-21
2023/07/15 08:06:27;;;;;;;;;;;;;;;;;;2370630;62;1161;-21
2023/07/15 08:08:57;;;;;;;;;;;;;;;;;;2369797;54;2190;-21
2023/07/15 08:11:27;;;;;;;;;;;;;;;;;;2370605;62;1873;-21
2023/07/15 08:13:57;;;;;;;;;;;;;;;;;;2370625;62;1074;-21
2023/07/15 08:16:28;;;;;;;;;;;;;;;;;;2370597;55;1336;-21
2023/07/15 08:18:58;;;;;;;;;;;;;;;;;;2370602;62;1666;-21
2023/07/15 08:21:29;;;;;;;;;;;;;;;;;;2370513;54;1634;-21
2023/07/15 08:23:59;;;;;;;;;;;;;;;;;;2370209;62;1936;-21
2023/07/15 08:26:29;;;;;;;;;;;;;;;;;;2371185;54;1186;-22
2023/07/15 08:29:01;;;;;;;;;;;;;;;;;;2363412;62;1246;-21
2023/07/15 08:31:31;;;;;;;;;;;;;;;;;;2370891;54;1761;-21
2023/07/15 08:34:03;;;;;;;;;;;;;;;;;;2371001;54;2021;-21
2023/07/15 08:36:34;;;;;;;;;;;;;;;;;;2366845;54;1408;-22
2023/07/15 08:39:05;;;;;;;;;;;;;;;;;;2371545;62;1130;-21
2023/07/15 08:41:38;;;;;;;;;;;;;;;;;;2371360;62;1152;-22
2023/07/15 08:44:10;;;;;;;;;;;;;;;;;;2363257;62;1934;-22
2023/07/15 08:46:42;;;;;;;;;;;;;;;;;;2371349;62;1145;-22
2023/07/15 08:49:13;;;;;;;;;;;;;;;;;;2370352;54;1285;-21
2023/07/15 08:51:44;;;;;;;;;;;;;;;;;;2371765;54;1296;-21
2023/07/15 08:54:14;;;;;;;;;;;;;;;;;;2370589;62;2130;-21
2023/07/15 08:56:45;;;;;;;;;;;;;;;;;;2371524;54;1338;-22
2023/07/15 08:59:18;;;;;;;;;;;;;;;;;;2370979;54;1885;-22
2023/07/15 09:01:48;;;;;;;;;;;;;;;;;;2371083;54;2041;-22
2023/07/15 09:04:22;;;;;;;;;;;;;;;;;;2371151;54;1939;-21
2023/07/15 09:06:54;;;;;;;;;;;;;;;;;;2369935;54;1991;-22
2023/07/15 09:09:32;;;;;;;;;;;;;;;;;;2374515;54;1975;-22
2023/07/15 09:12:03;;;;;;;;;;;;;;;;;;2369421;62;1786;-22
2023/07/15 09:14:43;;;;;;;;;;;;;;;;;;2375479;62;1168;-22
2023/07/15 09:17:17;;;;;;;;;;;;;;;;;;2371105;54;1371;-22
2023/07/15 09:19:47;;;;;;;;;;;;;;;;;;2372983;62;1179;-20
2023/07/15 09:22:18;;;;;;;;;;;;;;;;;;2374145;54;2316;-20
2023/07/15 09:24:48;;;;;;;;;;;;;;;;;;2374114;54;2196;-21
2023/07/15 09:27:18;;;;;;;;;;;;;;;;;;2374964;54;1310;-20
2023/07/15 09:29:49;;;;;;;;;;;;;;;;;;2369731;62;1553;-20
2023/07/15 09:32:22;;;;;;;;;;;;;;;;;;2373524;54;1811;-20
2023/07/15 09:34:53;;;;;;;;;;;;;;;;;;2374395;62;1568;-20
2023/07/15 09:37:27;;;;;;;;;;;;;;;;;;2374114;62;1339;-20
2023/07/15 09:40:15;;;;;;;;;;;;;;;;;;2374458;62;1443;-20
2023/07/15 09:42:52;;;;;;;;;;;;;;;;;;2374060;62;1931;-20
2023/07/15 09:45:36;;;;;;;;;;;;;;;;;;2375174;62;1409;-20
2023/07/15 09:48:10;;;;;;;;;;;;;;;;;;2374788;62;1414;-20
2023/07/15 09:50:41;;;;;;;;;;;;;;;;;;2373462;62;1498;-20
2023/07/15 09:53:11;;;;;;;;;;;;;;;;;;2374649;54;1897;-20
2023/07/15 09:55:42;;;;;;;;;;;;;;;;;;2375553;54;1552;-20
2023/07/15 09:58:13;;;;;;;;;;;;;;;;;;2374642;62;1560;-20
2023/07/15 10:00:50;;;;;;;;;;;;;;;;;;2372039;54;1703;-20
2023/07/15 10:03:28;;;;;;;;;;;;;;;;;;2374880;62;1936;-20
2023/07/15 10:05:59;;;;;;;;;;;;;;;;;;2374504;62;1175;-20
2023/07/15 10:08:29;;;;;;;;;;;;;;;;;;2374605;62;1234;-20
2023/07/15 10:11:00;;;;;;;;;;;;;;;;;;2370626;54;1385;-20
2023/07/15 10:13:30;;;;;;;;;;;;;;;;;;2374543;62;1495;-20
2023/07/15 10:16:02;;;;;;;;;;;;;;;;;;2374576;62;1518;-20
2023/07/15 10:18:32;;;;;;;;;;;;;;;;;;2371105;62;1274;-20
2023/07/15 10:21:03;;;;;;;;;;;;;;;;;;2369944;62;1235;-20
2023/07/15 10:23:34;;;;;;;;;;;;;;;;;;2371188;62;2002;-21
2023/07/15 10:26:05;;;;;;;;;;;;;;;;;;2373612;54;2038;-21
2023/07/15 10:28:36;;;;;;;;;;;;;;;;;;2374706;54;1916;-21
2023/07/15 10:31:13;;;;;;;;;;;;;;;;;;2374416;54;1519;-21
2023/07/15 10:33:56;;;;;;;;;;;;;;;;;;2375524;54;1403;-21
2023/07/15 10:36:36;;;;;;;;;;;;;;;;;;2374913;54;2233;-21
2023/07/15 10:39:10;;;;;;;;;;;;;;;;;;2374716;62;1428;-21
2023/07/15 10:41:41;;;;;;;;;;;;;;;;;;2375623;62;1348;-21
2023/07/15 10:44:17;;;;;;;;;;;;;;;;;;2374624;62;1930;-21
2023/07/15 10:47:08;;;;;;;;;;;;;;;;;;2375456;62;1427;-21
2023/07/15 10:49:39;;;;;;;;;;;;;;;;;;2375120;62;2262;-20
2023/07/15 10:52:18;;;;;;;;;;;;;;;;;;2375478;62;1908;-20
2023/07/15 10:54:52;;;;;;;;;;;;;;;;;;2375818;54;1522;-20
2023/07/15 10:57:26;;;;;;;;;;;;;;;;;;2373562;54;1376;-21
2023/07/15 10:59:56;;;;;;;;;;;;;;;;;;2375441;54;1256;-21
2023/07/15 11:02:27;;;;;;;;;;;;;;;;;;2375012;54;1927;-21
2023/07/15 11:04:58;;;;;;;;;;;;;;;;;;2371102;62;1995;-20
2023/07/15 11:07:32;;;;;;;;;;;;;;;;;;2375991;62;1177;-20
2023/07/15 11:10:02;;;;;;;;;;;;;;;;;;2374004;54;1829;-20
2023/07/15 11:12:32;;;;;;;;;;;;;;;;;;2375943;54;1541;-20
2023/07/15 11:15:03;;;;;;;;;;;;;;;;;;2375115;54;1625;-20
2023/07/15 11:17:38;;;;;;;;;;;;;;;;;;2375774;62;1434;-21
2023/07/15 11:20:11;;;;;;;;;;;;;;;;;;2374286;62;1218;-20
2023/07/15 11:22:42;;;;;;;;;;;;;;;;;;2375690;54;1927;-20
2023/07/15 11:25:13;;;;;;;;;;;;;;;;;;2373295;54;1837;-21
2023/07/15 11:27:45;;;;;;;;;;;;;;;;;;2373470;54;2114;-20
2023/07/15 11:30:15;;;;;;;;;;;;;;;;;;2373647;54;1963;-21
2023/07/15 11:32:51;;;;;;;;;;;;;;;;;;2374807;54;1702;-21
2023/07/15 11:35:22;;;;;;;;;;;;;;;;;;2373027;54;2125;-20
2023/07/15 11:44:21;;;;;;;;;;;;;;;;;;2368430;54;1999;-20
2023/07/15 11:46:54;;;;;;;;;;;;;;;;;;2372523;54;1825;-20
2023/07/15 11:49:24;;;;;;;;;;;;;;;;;;2375099;54;1550;-21
2023/07/15 11:51:56;;;;;;;;;;;;;;;;;;2367619;54;3243;-20
2023/07/15 11:54:26;;;;;;;;;;;;;;;;;;2369064;54;2352;-21
2023/07/15 11:56:56;;;;;;;;;;;;;;;;;;2373939;54;1715;-20
2023/07/15 11:59:29;;;;;;;;;;;;;;;;;;2374067;54;1785;-20
2023/07/15 12:02:01;;;;;;;;;;;;;;;;;;2372950;54;2128;-21
2023/07/15 12:04:32;;;;;;;;;;;;;;;;;;2373780;54;2224;-21
2023/07/15 12:07:05;;;;;;;;;;;;;;;;;;2374109;54;1877;-21
2023/07/15 12:09:35;;;;;;;;;;;;;;;;;;2374122;54;1230;-21
2023/07/15 12:12:06;;;;;;;;;;;;;;;;;;2372738;54;2053;-21
2023/07/15 12:14:36;;;;;;;;;;;;;;;;;;2374689;54;1906;-21
2023/07/15 12:17:06;;;;;;;;;;;;;;;;;;2374034;54;1816;-21
2023/07/15 12:19:36;;;;;;;;;;;;;;;;;;2375681;54;1182;-21
2023/07/15 12:22:07;;;;;;;;;;;;;;;;;;2373809;54;2205;-21
2023/07/15 12:24:40;;;;;;;;;;;;;;;;;;2374066;54;1929;-21
2023/07/15 12:27:10;;;;;;;;;;;;;;;;;;2374182;54;1237;-21
2023/07/15 12:29:40;;;;;;;;;;;;;;;;;;2375085;54;1229;-21
2023/07/15 12:32:11;;;;;;;;;;;;;;;;;;2373605;54;1412;-21
2023/07/15 12:34:41;;;;;;;;;;;;;;;;;;2371000;54;1181;-21
2023/07/15 12:37:11;;;;;;;;;;;;;;;;;;2372941;62;1393;-21
2023/07/15 12:39:44;;;;;;;;;;;;;;;;;;2371689;62;1154;-21
2023/07/15 12:42:14;;;;;;;;;;;;;;;;;;2374579;62;1330;-21
2023/07/15 12:44:45;;;;;;;;;;;;;;;;;;2371389;62;1927;-21
2023/07/15 12:47:15;;;;;;;;;;;;;;;;;;2374428;54;1741;-21
2023/07/15 12:49:45;;;;;;;;;;;;;;;;;;2374405;54;2269;-20
2023/07/15 12:52:18;;;;;;;;;;;;;;;;;;2374712;54;2143;-20
2023/07/15 12:54:48;;;;;;;;;;;;;;;;;;2376106;54;1884;-21
2023/07/15 12:57:19;;;;;;;;;;;;;;;;;;2375431;54;1402;-21
2023/07/15 12:59:49;;;;;;;;;;;;;;;;;;2375466;54;1705;-20
2023/07/15 13:02:19;;;;;;;;;;;;;;;;;;2374752;54;1832;-21
2023/07/15 13:04:49;;;;;;;;;;;;;;;;;;2375298;54;1931;-21
2023/07/15 13:07:21;;;;;;;;;;;;;;;;;;2374366;54;2003;-20
2023/07/15 13:09:51;;;;;;;;;;;;;;;;;;2375311;54;1336;-20
2023/07/15 13:12:22;;;;;;;;;;;;;;;;;;2374453;62;1398;-21
2023/07/15 13:14:52;;;;;;;;;;;;;;;;;;2375043;54;1426;-21
2023/07/15 13:17:22;;;;;;;;;;;;;;;;;;2370691;54;2129;-20
2023/07/15 13:19:53;;;;;;;;;;;;;;;;;;2370818;62;1777;-21
2023/07/15 13:22:23;;;;;;;;;;;;;;;;;;2374609;54;1931;-20
2023/07/15 13:24:53;;;;;;;;;;;;;;;;;;2374818;62;1991;-20
2023/07/15 13:27:23;;;;;;;;;;;;;;;;;;2374569;54;2014;-20
2023/07/15 13:29:54;;;;;;;;;;;;;;;;;;2373823;54;1406;-22
2023/07/15 13:32:24;;;;;;;;;;;;;;;;;;2375219;62;1353;-21
2023/07/15 13:34:55;;;;;;;;;;;;;;;;;;2374703;54;1962;-21
2023/07/15 13:37:25;;;;;;;;;;;;;;;;;;2373437;54;1631;-21
2023/07/15 13:39:55;;;;;;;;;;;;;;;;;;2374750;54;1806;-21
2023/07/15 13:42:26;;;;;;;;;;;;;;;;;;2374983;62;1095;-21
2023/07/15 13:44:56;;;;;;;;;;;;;;;;;;2374993;62;1951;-21
2023/07/15 13:47:26;;;;;;;;;;;;;;;;;;2375313;62;1189;-21
2023/07/15 13:49:57;;;;;;;;;;;;;;;;;;2374899;54;1573;-20
2023/07/15 13:52:28;;;;;;;;;;;;;;;;;;2375213;54;1895;-21
2023/07/15 13:54:58;;;;;;;;;;;;;;;;;;2371863;54;1387;-21
2023/07/15 13:57:28;;;;;;;;;;;;;;;;;;2375973;54;1308;-21
2023/07/15 13:59:58;;;;;;;;;;;;;;;;;;2375604;54;1802;-21
2023/07/15 14:02:29;;;;;;;;;;;;;;;;;;2375808;54;2014;-21
2023/07/15 14:04:59;;;;;;;;;;;;;;;;;;2375960;62;1994;-21
2023/07/15 14:07:29;;;;;;;;;;;;;;;;;;2376161;54;1207;-21
2023/07/15 14:09:59;;;;;;;;;;;;;;;;;;2375299;62;1850;-21
2023/07/15 14:12:30;;;;;;;;;;;;;;;;;;2375010;62;1441;-21
2023/07/15 14:15:00;;;;;;;;;;;;;;;;;;2371241;54;1299;-21
2023/07/15 14:17:30;;;;;;;;;;;;;;;;;;2375215;54;1857;-21
2023/07/15 14:20:00;;;;;;;;;;;;;;;;;;2375382;54;1313;-21
2023/07/15 14:22:31;;;;;;;;;;;;;;;;;;2375771;62;1100;-21
2023/07/15 14:25:01;;;;;;;;;;;;;;;;;;2374822;62;1905;-21
2023/07/15 14:27:31;;;;;;;;;;;;;;;;;;2375256;54;1759;-21
2023/07/15 14:30:01;;;;;;;;;;;;;;;;;;2375126;62;1144;-21
2023/07/15 14:32:31;;;;;;;;;;;;;;;;;;2376104;54;1217;-21
2023/07/15 14:35:02;;;;;;;;;;;;;;;;;;2373917;54;1650;-21
2023/07/15 14:37:32;;;;;;;;;;;;;;;;;;2374803;54;1586;-21
2023/07/15 14:40:03;;;;;;;;;;;;;;;;;;2374360;54;1964;-21
2023/07/15 14:42:33;;;;;;;;;;;;;;;;;;2374245;54;1971;-21
2023/07/15 14:45:04;;;;;;;;;;;;;;;;;;2373945;54;2071;-21
2023/07/15 14:47:35;;;;;;;;;;;;;;;;;;2375682;54;1450;-21
2023/07/15 14:50:06;;;;;;;;;;;;;;;;;;2374978;54;1830;-21
2023/07/15 14:52:36;;;;;;;;;;;;;;;;;;2374772;54;1989;-21
2023/07/15 14:55:11;;;;;;;;;;;;;;;;;;2215189;58;2349;-17
2023/07/15 14:57:42;;;;;;;;;;;;;;;;;;2214805;66;1762;-16
2023/07/15 15:03:21;;;;;;;;;;;;;;;;;;2191244;53;3904;-23
2023/07/15 15:05:51;;;;;;;;;;;;;;;;;;2201129;58;2316;-23
2023/07/15 15:08:22;;;;;;;;;;;;;;;;;;2201001;59;2295;-23
2023/07/15 15:10:54;;;;;;;;;;;;;;;;;;2205938;58;1924;-23
2023/07/15 15:13:24;;;;;;;;;;;;;;;;;;2202562;59;3380;-23
2023/07/15 15:15:54;;;;;;;;;;;;;;;;;;2204671;59;2154;-23
2023/07/15 15:18:25;;;;;;;;;;;;;;;;;;2205531;59;1979;-23
2023/07/15 15:20:55;;;;;;;;;;;;;;;;;;2204634;59;2117;-23
2023/07/15 15:23:25;;;;;;;;;;;;;;;;;;2204803;59;3018;-24
2023/07/15 15:25:55;;;;;;;;;;;;;;;;;;2204726;58;3170;-23
2023/07/15 15:28:25;;;;;;;;;;;;;;;;;;2203705;59;3103;-22
2023/07/15 15:30:56;;;;;;;;;;;;;;;;;;2203143;58;2600;-23
2023/07/15 15:33:26;;;;;;;;;;;;;;;;;;2200235;66;2970;-23
2023/07/15 15:35:59;;;;;;;;;;;;;;;;;;2202211;59;2710;-23
2023/07/15 15:38:30;;;;;;;;;;;;;;;;;;2205980;66;1811;-23
2023/07/15 15:41:00;;;;;;;;;;;;;;;;;;2204857;59;1860;-23
2023/07/15 15:43:30;;;;;;;;;;;;;;;;;;2205577;59;2037;-23
2023/07/15 15:46:01;;;;;;;;;;;;;;;;;;2204832;59;3354;-23
2023/07/15 15:48:31;;;;;;;;;;;;;;;;;;2204256;59;2290;-23
2023/07/15 15:51:01;;;;;;;;;;;;;;;;;;2205245;66;2646;-23
2023/07/15 15:53:33;;;;;;;;;;;;;;;;;;2204368;59;2002;-23
2023/07/15 15:56:03;;;;;;;;;;;;;;;;;;2204777;59;2886;-23
2023/07/15 15:58:34;;;;;;;;;;;;;;;;;;2206247;59;2399;-23
2023/07/15 16:01:04;;;;;;;;;;;;;;;;;;2205020;59;3263;-23
2023/07/15 16:03:34;;;;;;;;;;;;;;;;;;2205847;58;1857;-23
2023/07/15 16:06:04;;;;;;;;;;;;;;;;;;2204234;67;1910;-23
2023/07/15 16:08:34;;;;;;;;;;;;;;;;;;2202608;66;2645;-23
2023/07/15 16:11:05;;;;;;;;;;;;;;;;;;2200107;66;1723;-23
2023/07/15 16:13:35;;;;;;;;;;;;;;;;;;2202283;59;2138;-23
2023/07/15 16:16:05;;;;;;;;;;;;;;;;;;2204591;66;2238;-23
2023/07/15 16:18:36;;;;;;;;;;;;;;;;;;2201799;59;2247;-23
2023/07/15 16:21:06;;;;;;;;;;;;;;;;;;2203098;66;2415;-23
2023/07/15 16:23:36;;;;;;;;;;;;;;;;;;2202340;60;1725;-23
2023/07/15 16:26:06;;;;;;;;;;;;;;;;;;2201211;59;2759;-23
2023/07/15 16:28:36;;;;;;;;;;;;;;;;;;2203577;66;2445;-23
2023/07/15 16:31:07;;;;;;;;;;;;;;;;;;2202974;59;2318;-23
2023/07/15 16:33:37;;;;;;;;;;;;;;;;;;2202230;66;2072;-23
2023/07/15 16:36:07;;;;;;;;;;;;;;;;;;2200217;67;1745;-23
2023/07/15 16:38:37;;;;;;;;;;;;;;;;;;2198888;59;2308;-23
2023/07/15 16:41:08;;;;;;;;;;;;;;;;;;2204699;66;2546;-23
2023/07/15 16:43:38;;;;;;;;;;;;;;;;;;2203729;59;2261;-23
2023/07/15 16:46:08;;;;;;;;;;;;;;;;;;2201665;66;1967;-23
2023/07/15 16:48:38;;;;;;;;;;;;;;;;;;2202128;59;2272;-23
2023/07/15 16:51:09;;;;;;;;;;;;;;;;;;2202631;59;2281;-23
2023/07/15 16:53:39;;;;;;;;;;;;;;;;;;2201927;59;2185;-23
2023/07/15 16:56:09;;;;;;;;;;;;;;;;;;2202362;63;2135;-23
2023/07/15 16:58:39;;;;;;;;;;;;;;;;;;2203338;59;2016;-23
2023/07/15 17:01:09;;;;;;;;;;;;;;;;;;2203348;58;1882;-23
2023/07/15 17:03:40;;;;;;;;;;;;;;;;;;2202685;58;2031;-23
2023/07/15 17:06:10;;;;;;;;;;;;;;;;;;2202245;59;2071;-23
2023/07/15 17:08:40;;;;;;;;;;;;;;;;;;2203470;66;1818;-23
2023/07/15 17:11:10;;;;;;;;;;;;;;;;;;2203451;59;2933;-23
2023/07/15 17:13:41;;;;;;;;;;;;;;;;;;2202408;66;2657;-23
2023/07/15 17:16:11;;;;;;;;;;;;;;;;;;2202234;59;3257;-23
2023/07/15 17:18:41;;;;;;;;;;;;;;;;;;2202454;66;1918;-23
2023/07/15 17:21:11;;;;;;;;;;;;;;;;;;2201850;66;2070;-23
2023/07/15 17:23:41;;;;;;;;;;;;;;;;;;2202054;66;2029;-23
2023/07/15 17:26:12;;;;;;;;;;;;;;;;;;2200665;59;2523;-23
2023/07/15 17:28:42;;;;;;;;;;;;;;;;;;2201925;66;2929;-23
2023/07/15 17:31:12;;;;;;;;;;;;;;;;;;2196414;59;2056;-22
2023/07/15 17:33:42;;;;;;;;;;;;;;;;;;2199269;59;2508;-22
2023/07/15 17:36:12;;;;;;;;;;;;;;;;;;2202484;66;1987;-23
2023/07/15 17:38:43;;;;;;;;;;;;;;;;;;2201889;66;2715;-23